sensor_id;sensor_type;location;lat;lon;timestamp;pressure;altitude;pressure_sealevel;temperature;humidity
72959;BME280;60008;50.826;6.896;2023-04-22T00:02:15;100362.28;;;8.81;100.00
72959;BME280;60008;50.826;6.896;2023-04-22T00:05:02;100363.91;;;8.74;100.00
72959;BME280;60008;50.826;6.896;2023-04-22T00:07:47;100359.59;;;8.73;100.00
72959;BME280;60008;50.826;6.896;2023-04-22T00:10:33;100362.75;;;8.77;100.00
72959;BME280;60008;50.826;6.896;2023-04-22T00:13:17;100360.78;;;8.79;100.00
72959;BME280;60008;50.826;6.896;2023-04-22T00:16:03;100361.44;;;8.81;100.00
72959;BME280;60008;50.826;6.896;2023-04-22T00:18:48;100360.47;;;8.82;100.00
72959;BME280;60008;50.826;6.896;2023-04-22T00:21:33;100349.25;;;8.80;100.00
72959;BME280;60008;50.826;6.896;2023-04-22T00:24:18;100351.06;;;8.79;100.00
72959;BME280;60008;50.826;6.896;2023-04-22T00:27:03;100347.88;;;8.76;100.00
72959;BME280;60008;50.826;6.896;2023-04-22T00:29:48;100345.56;;;8.73;100.00
72959;BME280;60008;50.826;6.896;2023-04-22T00:32:34;100349.34;;;8.70;100.00
72959;BME280;60008;50.826;6.896;2023-04-22T00:35:19;100351.84;;;8.72;100.00
72959;BME280;60008;50.826;6.896;2023-04-22T00:38:04;100348.72;;;8.76;100.00
72959;BME280;60008;50.826;6.896;2023-04-22T00:40:49;100345.91;;;8.78;100.00
72959;BME280;60008;50.826;6.896;2023-04-22T00:43:34;100354.00;;;8.76;100.00
72959;BME280;60008;50.826;6.896;2023-04-22T00:46:19;100351.00;;;8.71;100.00
72959;BME280;60008;50.826;6.896;2023-04-22T00:49:05;100345.72;;;8.71;100.00
72959;BME280;60008;50.826;6.896;2023-04-22T00:51:50;100349.88;;;8.74;100.00
72959;BME280;60008;50.826;6.896;2023-04-22T00:54:35;100355.50;;;8.79;100.00
72959;BME280;60008;50.826;6.896;2023-04-22T00:57:20;100355.84;;;8.84;100.00
72959;BME280;60008;50.826;6.896;2023-04-22T01:00:06;100355.50;;;8.79;100.00
72959;BME280;60008;50.826;6.896;2023-04-22T01:02:54;100351.72;;;8.81;100.00
72959;BME280;60008;50.826;6.896;2023-04-22T01:05:40;100343.13;;;8.79;100.00
72959;BME280;60008;50.826;6.896;2023-04-22T01:08:27;100349.59;;;8.85;100.00
72959;BME280;60008;50.826;6.896;2023-04-22T01:11:14;100340.44;;;8.71;100.00
72959;BME280;60008;50.826;6.896;2023-04-22T01:13:59;100349.25;;;8.80;100.00
72959;BME280;60008;50.826;6.896;2023-04-22T01:16:45;100339.81;;;8.77;100.00
72959;BME280;60008;50.826;6.896;2023-04-22T01:19:30;100345.81;;;8.87;100.00
72959;BME280;60008;50.826;6.896;2023-04-22T01:22:17;100331.41;;;8.82;100.00
72959;BME280;60008;50.826;6.896;2023-04-22T01:25:03;100333.06;;;8.83;100.00
72959;BME280;60008;50.826;6.896;2023-04-22T01:27:48;100341.16;;;8.81;100.00
72959;BME280;60008;50.826;6.896;2023-04-22T01:30:33;100341.66;;;8.85;100.00
72959;BME280;60008;50.826;6.896;2023-04-22T01:33:18;100342.31;;;8.87;100.00
72959;BME280;60008;50.826;6.896;2023-04-22T01:36:04;100340.50;;;8.87;100.00
72959;BME280;60008;50.826;6.896;2023-04-22T01:38:49;100336.69;;;8.82;100.00
72959;BME280;60008;50.826;6.896;2023-04-22T01:41:34;100339.38;;;8.90;100.00
72959;BME280;60008;50.826;6.896;2023-04-22T01:44:19;100337.06;;;8.95;100.00
72959;BME280;60008;50.826;6.896;2023-04-22T01:47:04;100343.69;;;8.99;100.00
72959;BME280;60008;50.826;6.896;2023-04-22T01:49:49;100345.34;;;9.00;100.00
72959;BME280;60008;50.826;6.896;2023-04-22T01:52:35;100340.75;;;9.02;100.00
72959;BME280;60008;50.826;6.896;2023-04-22T01:55:20;100332.81;;;9.02;100.00
72959;BME280;60008;50.826;6.896;2023-04-22T01:58:05;100339.75;;;9.03;100.00
72959;BME280;60008;50.826;6.896;2023-04-22T02:00:50;100325.03;;;9.01;100.00
72959;BME280;60008;50.826;6.896;2023-04-22T02:03:35;100324.19;;;9.00;100.00
72959;BME280;60008;50.826;6.896;2023-04-22T02:06:21;100314.63;;;8.99;100.00
72959;BME280;60008;50.826;6.896;2023-04-22T02:09:06;100318.56;;;8.95;100.00
72959;BME280;60008;50.826;6.896;2023-04-22T02:11:51;100310.31;;;8.98;100.00
72959;BME280;60008;50.826;6.896;2023-04-22T02:14:35;100314.13;;;8.95;100.00
72959;BME280;60008;50.826;6.896;2023-04-22T02:17:21;100309.47;;;8.89;100.00
72959;BME280;60008;50.826;6.896;2023-04-22T02:20:06;100303.38;;;9.05;100.00
72959;BME280;60008;50.826;6.896;2023-04-22T02:22:51;100312.00;;;9.07;100.00
72959;BME280;60008;50.826;6.896;2023-04-22T02:25:37;100306.88;;;9.06;100.00
72959;BME280;60008;50.826;6.896;2023-04-22T02:28:22;100309.50;;;8.97;100.00
72959;BME280;60008;50.826;6.896;2023-04-22T02:31:07;100314.31;;;9.02;100.00
72959;BME280;60008;50.826;6.896;2023-04-22T02:33:52;100308.84;;;9.04;100.00
72959;BME280;60008;50.826;6.896;2023-04-22T02:36:37;100320.78;;;9.08;100.00
72959;BME280;60008;50.826;6.896;2023-04-22T02:39:22;100312.78;;;8.99;100.00
72959;BME280;60008;50.826;6.896;2023-04-22T02:42:07;100316.97;;;9.10;100.00
72959;BME280;60008;50.826;6.896;2023-04-22T02:44:52;100315.63;;;9.06;100.00
72959;BME280;60008;50.826;6.896;2023-04-22T02:47:37;100311.84;;;9.09;100.00
72959;BME280;60008;50.826;6.896;2023-04-22T02:50:23;100312.03;;;9.15;100.00
72959;BME280;60008;50.826;6.896;2023-04-22T02:53:07;100317.97;;;9.17;100.00
72959;BME280;60008;50.826;6.896;2023-04-22T02:55:53;100304.56;;;9.19;100.00
72959;BME280;60008;50.826;6.896;2023-04-22T02:58:39;100305.06;;;9.14;100.00
72959;BME280;60008;50.826;6.896;2023-04-22T03:01:24;100294.19;;;9.17;100.00
72959;BME280;60008;50.826;6.896;2023-04-22T03:04:09;100295.34;;;9.15;100.00
72959;BME280;60008;50.826;6.896;2023-04-22T03:06:56;100299.78;;;9.14;100.00
72959;BME280;60008;50.826;6.896;2023-04-22T03:09:41;100302.94;;;9.18;100.00
72959;BME280;60008;50.826;6.896;2023-04-22T03:12:26;100298.00;;;9.23;100.00
72959;BME280;60008;50.826;6.896;2023-04-22T03:15:11;100293.34;;;9.25;100.00
72959;BME280;60008;50.826;6.896;2023-04-22T03:17:56;100295.16;;;9.24;100.00
72959;BME280;60008;50.826;6.896;2023-04-22T03:20:41;100296.84;;;9.25;100.00
72959;BME280;60008;50.826;6.896;2023-04-22T03:23:26;100288.72;;;9.27;100.00
72959;BME280;60008;50.826;6.896;2023-04-22T03:26:11;100286.78;;;9.29;100.00
72959;BME280;60008;50.826;6.896;2023-04-22T03:28:57;100283.81;;;9.32;100.00
72959;BME280;60008;50.826;6.896;2023-04-22T03:31:42;100283.13;;;9.38;100.00
72959;BME280;60008;50.826;6.896;2023-04-22T03:34:27;100280.81;;;9.35;100.00
72959;BME280;60008;50.826;6.896;2023-04-22T03:37:12;100280.47;;;9.38;100.00
72959;BME280;60008;50.826;6.896;2023-04-22T03:39:57;100283.63;;;9.41;100.00
72959;BME280;60008;50.826;6.896;2023-04-22T03:42:42;100289.75;;;9.34;100.00
72959;BME280;60008;50.826;6.896;2023-04-22T03:45:27;100278.34;;;9.41;100.00
72959;BME280;60008;50.826;6.896;2023-04-22T03:48:12;100277.19;;;9.44;100.00
72959;BME280;60008;50.826;6.896;2023-04-22T03:50:57;100269.91;;;9.30;100.00
72959;BME280;60008;50.826;6.896;2023-04-22T03:53:42;100263.44;;;9.40;100.00
72959;BME280;60008;50.826;6.896;2023-04-22T03:56:27;100249.75;;;9.37;100.00
72959;BME280;60008;50.826;6.896;2023-04-22T03:59:12;100249.44;;;9.40;100.00
72959;BME280;60008;50.826;6.896;2023-04-22T04:01:57;100249.75;;;9.29;100.00
72959;BME280;60008;50.826;6.896;2023-04-22T04:04:42;100245.75;;;9.25;100.00
72959;BME280;60008;50.826;6.896;2023-04-22T04:07:27;100246.28;;;9.28;100.00
72959;BME280;60008;50.826;6.896;2023-04-22T04:10:12;100239.31;;;9.27;100.00
72959;BME280;60008;50.826;6.896;2023-04-22T04:12:57;100237.84;;;9.25;100.00
72959;BME280;60008;50.826;6.896;2023-04-22T04:15:42;100232.41;;;9.26;100.00
72959;BME280;60008;50.826;6.896;2023-04-22T04:18:28;100239.66;;;9.24;100.00
72959;BME280;60008;50.826;6.896;2023-04-22T04:21:13;100239.31;;;9.19;100.00
72959;BME280;60008;50.826;6.896;2023-04-22T04:23:58;100239.50;;;9.18;100.00
72959;BME280;60008;50.826;6.896;2023-04-22T04:26:43;100232.88;;;9.14;100.00
72959;BME280;60008;50.826;6.896;2023-04-22T04:29:28;100236.84;;;9.10;100.00
72959;BME280;60008;50.826;6.896;2023-04-22T04:32:13;100239.63;;;9.16;100.00
72959;BME280;60008;50.826;6.896;2023-04-22T04:34:58;100248.72;;;9.06;100.00
72959;BME280;60008;50.826;6.896;2023-04-22T04:37:43;100243.09;;;9.09;100.00
72959;BME280;60008;50.826;6.896;2023-04-22T04:40:30;100238.81;;;9.08;100.00
72959;BME280;60008;50.826;6.896;2023-04-22T04:43:15;100237.66;;;9.10;100.00
72959;BME280;60008;50.826;6.896;2023-04-22T04:46:01;100235.69;;;9.12;100.00
72959;BME280;60008;50.826;6.896;2023-04-22T04:48:46;100232.88;;;9.14;100.00
72959;BME280;60008;50.826;6.896;2023-04-22T04:51:32;100225.44;;;9.17;100.00
72959;BME280;60008;50.826;6.896;2023-04-22T04:54:17;100231.56;;;9.18;100.00
72959;BME280;60008;50.826;6.896;2023-04-22T04:57:02;100233.03;;;9.20;100.00
72959;BME280;60008;50.826;6.896;2023-04-22T04:59:47;100230.41;;;9.20;100.00
72959;BME280;60008;50.826;6.896;2023-04-22T05:02:32;100223.13;;;9.14;100.00
72959;BME280;60008;50.826;6.896;2023-04-22T05:05:17;100230.22;;;9.30;100.00
72959;BME280;60008;50.826;6.896;2023-04-22T05:08:02;100228.41;;;9.38;100.00
72959;BME280;60008;50.826;6.896;2023-04-22T05:10:48;100221.50;;;9.45;100.00
72959;BME280;60008;50.826;6.896;2023-04-22T05:13:33;100216.69;;;9.49;100.00
72959;BME280;60008;50.826;6.896;2023-04-22T05:16:18;100232.53;;;9.57;100.00
72959;BME280;60008;50.826;6.896;2023-04-22T05:19:03;100220.78;;;9.59;100.00
72959;BME280;60008;50.826;6.896;2023-04-22T05:21:48;100221.47;;;9.78;100.00
72959;BME280;60008;50.826;6.896;2023-04-22T05:24:33;100220.75;;;9.84;100.00
72959;BME280;60008;50.826;6.896;2023-04-22T05:27:18;100219.59;;;9.94;100.00
72959;BME280;60008;50.826;6.896;2023-04-22T05:30:03;100233.13;;;10.07;100.00
72959;BME280;60008;50.826;6.896;2023-04-22T05:32:49;100220.56;;;10.01;100.00
72959;BME280;60008;50.826;6.896;2023-04-22T05:35:34;100221.53;;;10.08;100.00
72959;BME280;60008;50.826;6.896;2023-04-22T05:38:20;100216.88;;;10.27;100.00
72959;BME280;60008;50.826;6.896;2023-04-22T05:41:05;100216.97;;;10.41;100.00
72959;BME280;60008;50.826;6.896;2023-04-22T05:43:50;100224.09;;;10.49;100.00
72959;BME280;60008;50.826;6.896;2023-04-22T05:46:34;100224.38;;;10.54;100.00
72959;BME280;60008;50.826;6.896;2023-04-22T05:49:19;100212.91;;;10.61;100.00
72959;BME280;60008;50.826;6.896;2023-04-22T05:52:04;100200.25;;;10.49;100.00
72959;BME280;60008;50.826;6.896;2023-04-22T05:54:50;100201.88;;;10.50;100.00
72959;BME280;60008;50.826;6.896;2023-04-22T05:57:35;100207.81;;;10.52;100.00
72959;BME280;60008;50.826;6.896;2023-04-22T06:00:20;100207.16;;;10.50;100.00
72959;BME280;60008;50.826;6.896;2023-04-22T06:03:05;100217.44;;;10.53;100.00
72959;BME280;60008;50.826;6.896;2023-04-22T06:05:50;100199.38;;;10.56;100.00
72959;BME280;60008;50.826;6.896;2023-04-22T06:08:35;100208.41;;;10.70;100.00
72959;BME280;60008;50.826;6.896;2023-04-22T06:11:20;100220.13;;;10.75;100.00
72959;BME280;60008;50.826;6.896;2023-04-22T06:14:05;100207.19;;;10.81;100.00
72959;BME280;60008;50.826;6.896;2023-04-22T06:16:50;100205.75;;;10.93;100.00
72959;BME280;60008;50.826;6.896;2023-04-22T06:19:36;100196.13;;;11.00;100.00
72959;BME280;60008;50.826;6.896;2023-04-22T06:22:22;100192.44;;;11.23;100.00
72959;BME280;60008;50.826;6.896;2023-04-22T06:25:07;100207.13;;;11.34;100.00
72959;BME280;60008;50.826;6.896;2023-04-22T06:27:52;100197.53;;;11.33;100.00
72959;BME280;60008;50.826;6.896;2023-04-22T06:30:37;100203.19;;;11.30;100.00
72959;BME280;60008;50.826;6.896;2023-04-22T06:33:22;100186.84;;;11.41;100.00
72959;BME280;60008;50.826;6.896;2023-04-22T06:36:07;100186.72;;;11.72;100.00
72959;BME280;60008;50.826;6.896;2023-04-22T06:38:52;100181.16;;;11.81;100.00
72959;BME280;60008;50.826;6.896;2023-04-22T06:41:38;100183.44;;;11.70;100.00
72959;BME280;60008;50.826;6.896;2023-04-22T06:44:26;100179.97;;;11.84;100.00
72959;BME280;60008;50.826;6.896;2023-04-22T06:47:11;100163.00;;;11.85;100.00
72959;BME280;60008;50.826;6.896;2023-04-22T06:49:56;100159.91;;;11.96;100.00
72959;BME280;60008;50.826;6.896;2023-04-22T06:52:41;100158.34;;;12.16;100.00
72959;BME280;60008;50.826;6.896;2023-04-22T06:55:26;100161.09;;;12.23;100.00
72959;BME280;60008;50.826;6.896;2023-04-22T06:58:11;100138.72;;;12.32;100.00
72959;BME280;60008;50.826;6.896;2023-04-22T07:00:56;100133.25;;;12.54;100.00
72959;BME280;60008;50.826;6.896;2023-04-22T07:03:41;100151.63;;;12.71;100.00
72959;BME280;60008;50.826;6.896;2023-04-22T07:06:26;100138.50;;;12.69;100.00
72959;BME280;60008;50.826;6.896;2023-04-22T07:09:11;100125.63;;;12.87;100.00
72959;BME280;60008;50.826;6.896;2023-04-22T07:11:56;100124.41;;;12.90;100.00
72959;BME280;60008;50.826;6.896;2023-04-22T07:14:43;100134.22;;;13.10;100.00
72959;BME280;60008;50.826;6.896;2023-04-22T07:17:28;100138.78;;;13.17;100.00
72959;BME280;60008;50.826;6.896;2023-04-22T07:20:13;100131.69;;;13.24;100.00
72959;BME280;60008;50.826;6.896;2023-04-22T07:22:58;100131.69;;;13.51;100.00
72959;BME280;60008;50.826;6.896;2023-04-22T07:25:43;100130.75;;;13.65;100.00
72959;BME280;60008;50.826;6.896;2023-04-22T07:28:28;100113.06;;;13.86;100.00
72959;BME280;60008;50.826;6.896;2023-04-22T07:31:14;100114.41;;;14.09;100.00
72959;BME280;60008;50.826;6.896;2023-04-22T07:33:59;100121.22;;;14.18;100.00
72959;BME280;60008;50.826;6.896;2023-04-22T07:36:44;100118.56;;;14.25;100.00
72959;BME280;60008;50.826;6.896;2023-04-22T07:39:29;100116.63;;;14.47;100.00
72959;BME280;60008;50.826;6.896;2023-04-22T07:42:14;100103.16;;;14.74;100.00
72959;BME280;60008;50.826;6.896;2023-04-22T07:44:59;100089.44;;;14.97;100.00
72959;BME280;60008;50.826;6.896;2023-04-22T07:47:45;100085.69;;;15.44;100.00
72959;BME280;60008;50.826;6.896;2023-04-22T07:50:30;100091.47;;;15.34;100.00
72959;BME280;60008;50.826;6.896;2023-04-22T07:53:15;100077.47;;;15.65;100.00
72959;BME280;60008;50.826;6.896;2023-04-22T07:56:02;100078.50;;;15.64;100.00
72959;BME280;60008;50.826;6.896;2023-04-22T07:58:48;100080.06;;;15.85;100.00
72959;BME280;60008;50.826;6.896;2023-04-22T08:01:32;100075.25;;;16.06;100.00
72959;BME280;60008;50.826;6.896;2023-04-22T08:04:21;100063.63;;;16.32;100.00
72959;BME280;60008;50.826;6.896;2023-04-22T08:07:08;100066.19;;;16.52;100.00
72959;BME280;60008;50.826;6.896;2023-04-22T08:10:13;100059.53;;;16.67;100.00
72959;BME280;60008;50.826;6.896;2023-04-22T08:12:58;100052.22;;;17.06;100.00
72959;BME280;60008;50.826;6.896;2023-04-22T08:15:44;100055.75;;;18.04;100.00
72959;BME280;60008;50.826;6.896;2023-04-22T08:18:29;100040.38;;;18.82;100.00
72959;BME280;60008;50.826;6.896;2023-04-22T08:21:14;100038.97;;;18.68;100.00
72959;BME280;60008;50.826;6.896;2023-04-22T08:23:59;100041.75;;;18.73;100.00
72959;BME280;60008;50.826;6.896;2023-04-22T08:26:44;100032.31;;;18.70;100.00
72959;BME280;60008;50.826;6.896;2023-04-22T08:29:29;100032.44;;;17.68;100.00
72959;BME280;60008;50.826;6.896;2023-04-22T08:32:14;100032.03;;;18.49;100.00
72959;BME280;60008;50.826;6.896;2023-04-22T08:35:00;100026.78;;;19.18;100.00
72959;BME280;60008;50.826;6.896;2023-04-22T08:37:49;100020.00;;;20.30;100.00
72959;BME280;60008;50.826;6.896;2023-04-22T08:40:34;100027.06;;;19.80;100.00
72959;BME280;60008;50.826;6.896;2023-04-22T08:43:19;100022.84;;;20.52;89.30
72959;BME280;60008;50.826;6.896;2023-04-22T08:46:04;100033.28;;;19.69;95.09
72959;BME280;60008;50.826;6.896;2023-04-22T08:48:50;100029.28;;;19.71;97.21
72959;BME280;60008;50.826;6.896;2023-04-22T08:51:35;100021.03;;;19.38;97.21
72959;BME280;60008;50.826;6.896;2023-04-22T08:54:22;100023.91;;;19.83;89.68
72959;BME280;60008;50.826;6.896;2023-04-22T08:57:07;100021.13;;;19.66;91.96
72959;BME280;60008;50.826;6.896;2023-04-22T08:59:55;100012.13;;;21.62;80.77
72959;BME280;60008;50.826;6.896;2023-04-22T09:02:40;100014.78;;;22.00;81.94
72959;BME280;60008;50.826;6.896;2023-04-22T09:05:31;100009.59;;;21.77;75.26
72959;BME280;60008;50.826;6.896;2023-04-22T09:08:17;100006.66;;;21.35;82.48
72959;BME280;60008;50.826;6.896;2023-04-22T09:11:03;99996.63;;;20.64;83.94
72959;BME280;60008;50.826;6.896;2023-04-22T09:13:48;100008.66;;;21.45;82.04
72959;BME280;60008;50.826;6.896;2023-04-22T09:16:39;99993.69;;;20.99;79.33
72959;BME280;60008;50.826;6.896;2023-04-22T09:19:25;100005.28;;;20.83;81.97
72959;BME280;60008;50.826;6.896;2023-04-22T09:22:12;100011.66;;;21.10;77.94
72959;BME280;60008;50.826;6.896;2023-04-22T09:24:58;99993.53;;;22.94;66.43
72959;BME280;60008;50.826;6.896;2023-04-22T09:27:50;99991.34;;;22.59;75.17
72959;BME280;60008;50.826;6.896;2023-04-22T09:30:36;99990.50;;;23.27;60.74
72959;BME280;60008;50.826;6.896;2023-04-22T09:33:24;99997.28;;;22.03;68.33
72959;BME280;60008;50.826;6.896;2023-04-22T09:36:09;99991.97;;;23.03;61.80
72959;BME280;60008;50.826;6.896;2023-04-22T09:39:01;99997.13;;;22.68;64.22
72959;BME280;60008;50.826;6.896;2023-04-22T09:41:53;99987.91;;;22.64;70.12
72959;BME280;60008;50.826;6.896;2023-04-22T09:44:38;99989.34;;;21.74;72.21
72959;BME280;60008;50.826;6.896;2023-04-22T09:47:24;99983.31;;;22.11;74.41
72959;BME280;60008;50.826;6.896;2023-04-22T09:50:09;99994.16;;;22.16;71.88
72959;BME280;60008;50.826;6.896;2023-04-22T09:52:57;100000.28;;;22.06;65.51
72959;BME280;60008;50.826;6.896;2023-04-22T09:55:46;100003.03;;;21.46;72.02
72959;BME280;60008;50.826;6.896;2023-04-22T09:58:37;100005.19;;;22.09;70.84
72959;BME280;60008;50.826;6.896;2023-04-22T10:01:34;100002.66;;;19.98;81.97
72959;BME280;60008;50.826;6.896;2023-04-22T10:04:19;100008.97;;;19.64;80.72
72959;BME280;60008;50.826;6.896;2023-04-22T10:07:05;100015.59;;;21.19;69.16
72959;BME280;60008;50.826;6.896;2023-04-22T10:09:50;100016.47;;;21.84;65.00
72959;BME280;60008;50.826;6.896;2023-04-22T10:12:36;100014.84;;;22.32;60.72
72959;BME280;60008;50.826;6.896;2023-04-22T10:15:22;100020.72;;;21.80;64.36
72959;BME280;60008;50.826;6.896;2023-04-22T10:18:12;100009.84;;;22.45;62.34
72959;BME280;60008;50.826;6.896;2023-04-22T10:20:58;100011.97;;;22.65;63.24
72959;BME280;60008;50.826;6.896;2023-04-22T10:23:45;100017.13;;;21.91;65.28
72959;BME280;60008;50.826;6.896;2023-04-22T10:26:42;100015.25;;;20.82;69.99
72959;BME280;60008;50.826;6.896;2023-04-22T10:29:35;100008.22;;;20.98;68.15
72959;BME280;60008;50.826;6.896;2023-04-22T10:35:11;100020.97;;;21.19;76.03
72959;BME280;60008;50.826;6.896;2023-04-22T10:37:57;100022.84;;;22.22;69.78
72959;BME280;60008;50.826;6.896;2023-04-22T10:40:58;100024.53;;;22.28;66.81
72959;BME280;60008;50.826;6.896;2023-04-22T10:43:45;100021.19;;;22.69;63.28
72959;BME280;60008;50.826;6.896;2023-04-22T10:49:22;100020.88;;;22.39;66.55
72959;BME280;60008;50.826;6.896;2023-04-22T10:52:26;100031.91;;;22.11;67.85
72959;BME280;60008;50.826;6.896;2023-04-22T10:55:11;100040.47;;;22.03;68.22
72959;BME280;60008;50.826;6.896;2023-04-22T10:57:58;100039.63;;;21.42;74.62
72959;BME280;60008;50.826;6.896;2023-04-22T11:00:43;100041.66;;;20.24;82.43
72959;BME280;60008;50.826;6.896;2023-04-22T11:03:38;100037.22;;;20.29;80.95
72959;BME280;60008;50.826;6.896;2023-04-22T11:06:24;100039.94;;;21.07;81.78
72959;BME280;60008;50.826;6.896;2023-04-22T11:09:11;100036.88;;;20.70;80.46
72959;BME280;60008;50.826;6.896;2023-04-22T11:15:19;100025.63;;;22.05;72.17
72959;BME280;60008;50.826;6.896;2023-04-22T11:18:08;100025.28;;;21.80;73.44
72959;BME280;60008;50.826;6.896;2023-04-22T11:20:54;100024.06;;;20.94;77.09
72959;BME280;60008;50.826;6.896;2023-04-22T11:23:48;100025.47;;;21.90;74.80
72959;BME280;60008;50.826;6.896;2023-04-22T11:26:35;100030.03;;;22.11;72.05
72959;BME280;60008;50.826;6.896;2023-04-22T11:29:21;100029.88;;;21.36;74.78
72959;BME280;60008;50.826;6.896;2023-04-22T11:32:06;100023.72;;;20.91;78.79
72959;BME280;60008;50.826;6.896;2023-04-22T11:34:53;100030.41;;;20.71;82.35
72959;BME280;60008;50.826;6.896;2023-04-22T11:37:50;100031.38;;;20.20;83.75
72959;BME280;60008;50.826;6.896;2023-04-22T11:40:41;100025.22;;;20.65;85.92
72959;BME280;60008;50.826;6.896;2023-04-22T11:43:30;100031.91;;;20.62;87.30
72959;BME280;60008;50.826;6.896;2023-04-22T11:46:15;100026.47;;;20.17;89.22
72959;BME280;60008;50.826;6.896;2023-04-22T11:49:15;100025.06;;;20.15;89.38
72959;BME280;60008;50.826;6.896;2023-04-22T11:52:00;100030.41;;;20.55;88.48
72959;BME280;60008;50.826;6.896;2023-04-22T11:54:45;100022.81;;;20.68;85.93
72959;BME280;60008;50.826;6.896;2023-04-22T11:57:34;100019.69;;;20.27;87.19
72959;BME280;60008;50.826;6.896;2023-04-22T12:00:20;100028.22;;;20.52;92.21
72959;BME280;60008;50.826;6.896;2023-04-22T12:06:03;100030.00;;;20.46;91.47
72959;BME280;60008;50.826;6.896;2023-04-22T12:08:48;100024.91;;;20.33;95.44
72959;BME280;60008;50.826;6.896;2023-04-22T12:11:33;100019.84;;;20.37;92.59
72959;BME280;60008;50.826;6.896;2023-04-22T12:14:18;100025.63;;;20.29;92.26
72959;BME280;60008;50.826;6.896;2023-04-22T12:17:04;100029.31;;;20.11;93.74
72959;BME280;60008;50.826;6.896;2023-04-22T12:19:55;100026.63;;;20.11;95.27
72959;BME280;60008;50.826;6.896;2023-04-22T12:22:40;100026.41;;;20.01;97.10
72959;BME280;60008;50.826;6.896;2023-04-22T12:25:26;100027.28;;;20.18;94.83
72959;BME280;60008;50.826;6.896;2023-04-22T12:28:11;100023.53;;;20.19;94.56
72959;BME280;60008;50.826;6.896;2023-04-22T12:30:56;100026.75;;;20.04;95.60
72959;BME280;60008;50.826;6.896;2023-04-22T12:33:41;100030.78;;;20.47;95.14
72959;BME280;60008;50.826;6.896;2023-04-22T12:36:26;100024.31;;;20.59;92.68
72959;BME280;60008;50.826;6.896;2023-04-22T12:39:11;100022.50;;;20.65;93.68
72959;BME280;60008;50.826;6.896;2023-04-22T12:41:57;100029.78;;;20.64;96.49
72959;BME280;60008;50.826;6.896;2023-04-22T12:44:42;100029.88;;;20.41;98.37
72959;BME280;60008;50.826;6.896;2023-04-22T12:47:27;100035.94;;;20.20;94.59
72959;BME280;60008;50.826;6.896;2023-04-22T12:50:13;100028.16;;;20.07;95.20
72959;BME280;60008;50.826;6.896;2023-04-22T12:52:58;100041.50;;;20.02;97.58
72959;BME280;60008;50.826;6.896;2023-04-22T12:55:43;100033.91;;;19.99;95.75
72959;BME280;60008;50.826;6.896;2023-04-22T12:58:30;100045.50;;;19.99;96.95
72959;BME280;60008;50.826;6.896;2023-04-22T13:01:15;100043.81;;;19.70;95.45
72959;BME280;60008;50.826;6.896;2023-04-22T13:04:00;100041.84;;;19.54;96.19
72959;BME280;60008;50.826;6.896;2023-04-22T13:06:46;100038.28;;;19.77;97.43
72959;BME280;60008;50.826;6.896;2023-04-22T13:09:30;100044.75;;;19.29;97.67
72959;BME280;60008;50.826;6.896;2023-04-22T13:12:16;100042.06;;;19.29;100.00
72959;BME280;60008;50.826;6.896;2023-04-22T13:15:01;100055.72;;;19.16;100.00
72959;BME280;60008;50.826;6.896;2023-04-22T13:17:47;100045.19;;;19.03;100.00
72959;BME280;60008;50.826;6.896;2023-04-22T13:20:35;100045.09;;;19.10;100.00
72959;BME280;60008;50.826;6.896;2023-04-22T13:23:20;100040.53;;;18.98;100.00
72959;BME280;60008;50.826;6.896;2023-04-22T13:26:05;100043.44;;;18.97;100.00
72959;BME280;60008;50.826;6.896;2023-04-22T13:28:50;100035.88;;;18.94;100.00
72959;BME280;60008;50.826;6.896;2023-04-22T13:31:36;100041.09;;;18.89;100.00
72959;BME280;60008;50.826;6.896;2023-04-22T13:34:22;100033.38;;;18.81;100.00
72959;BME280;60008;50.826;6.896;2023-04-22T13:37:07;100032.22;;;18.77;100.00
72959;BME280;60008;50.826;6.896;2023-04-22T13:39:52;100037.19;;;18.62;100.00
72959;BME280;60008;50.826;6.896;2023-04-22T13:42:37;100036.13;;;18.51;100.00
72959;BME280;60008;50.826;6.896;2023-04-22T13:45:22;100037.50;;;18.54;100.00
72959;BME280;60008;50.826;6.896;2023-04-22T13:48:07;100032.41;;;18.52;100.00
72959;BME280;60008;50.826;6.896;2023-04-22T13:50:52;100026.78;;;18.54;100.00
72959;BME280;60008;50.826;6.896;2023-04-22T13:53:36;100022.53;;;18.46;100.00
72959;BME280;60008;50.826;6.896;2023-04-22T13:56:22;100033.28;;;18.46;100.00
72959;BME280;60008;50.826;6.896;2023-04-22T13:59:08;100029.84;;;18.57;100.00
72959;BME280;60008;50.826;6.896;2023-04-22T14:01:52;100023.31;;;18.53;100.00
72959;BME280;60008;50.826;6.896;2023-04-22T14:04:37;100029.34;;;18.49;100.00
72959;BME280;60008;50.826;6.896;2023-04-22T14:07:22;100029.19;;;18.43;100.00
72959;BME280;60008;50.826;6.896;2023-04-22T14:10:07;100029.88;;;18.39;100.00
72959;BME280;60008;50.826;6.896;2023-04-22T14:12:56;100023.56;;;18.33;100.00
72959;BME280;60008;50.826;6.896;2023-04-22T14:15:41;100034.97;;;18.29;100.00
72959;BME280;60008;50.826;6.896;2023-04-22T14:18:26;100027.38;;;18.26;100.00
72959;BME280;60008;50.826;6.896;2023-04-22T14:21:11;100026.69;;;18.30;100.00
72959;BME280;60008;50.826;6.896;2023-04-22T14:23:56;100022.66;;;18.39;100.00
72959;BME280;60008;50.826;6.896;2023-04-22T14:26:41;100038.47;;;18.48;100.00
72959;BME280;60008;50.826;6.896;2023-04-22T14:29:26;100033.44;;;18.51;100.00
72959;BME280;60008;50.826;6.896;2023-04-22T14:32:13;100035.00;;;18.40;100.00
72959;BME280;60008;50.826;6.896;2023-04-22T14:35:00;100037.19;;;18.32;100.00
72959;BME280;60008;50.826;6.896;2023-04-22T14:37:46;100038.56;;;18.23;100.00